createdAt,value
2023-04-14T00:02:23.928Z,88.20
2023-04-14T00:04:54.554Z,88.60
2023-04-14T00:07:21.869Z,88.24
2023-04-14T00:09:48.791Z,88.25
2023-04-14T00:12:15.735Z,88.25
2023-04-14T00:14:43.528Z,88.73
2023-04-14T00:17:10.979Z,87.76
2023-04-14T00:19:38.143Z,88.35
2023-04-14T00:22:05.040Z,87.67
2023-04-14T00:24:31.989Z,88.51
2023-04-14T00:26:58.923Z,88.41
2023-04-14T00:29:26.175Z,88.64
2023-04-14T00:31:53.371Z,88.20
2023-04-14T00:34:20.252Z,88.67
2023-04-14T00:36:47.092Z,88.76
2023-04-14T00:39:13.900Z,88.48
2023-04-14T00:41:41.860Z,88.77
2023-04-14T00:44:08.676Z,88.05
2023-04-14T00:46:37.110Z,88.35
2023-04-14T00:49:04.343Z,88.22
2023-04-14T00:51:32.420Z,88.49
2023-04-14T00:54:08.658Z,88.57
2023-04-14T00:56:35.890Z,88.51
2023-04-14T00:59:03.322Z,88.24
2023-04-14T01:01:30.746Z,88.73
2023-04-14T01:03:58.379Z,88.22
2023-04-14T01:06:27.083Z,89.42
2023-04-14T01:08:54.962Z,88.11
2023-04-14T01:11:30.510Z,88.31
2023-04-14T01:14:12.828Z,88.35
2023-04-14T01:16:42.497Z,90.02
2023-04-14T01:19:37.364Z,89.09
2023-04-14T01:22:07.000Z,89.25
2023-04-14T01:25:01.366Z,89.54
2023-04-14T01:27:42.447Z,88.83
2023-04-14T01:30:30.496Z,88.59
2023-04-14T01:33:01.164Z,89.48
2023-04-14T01:35:40.015Z,88.61
2023-04-14T01:38:18.344Z,89.06
2023-04-14T01:40:50.492Z,88.56
2023-04-14T01:43:22.905Z,89.71
2023-04-14T01:45:52.897Z,89.28
2023-04-14T01:48:20.457Z,88.97
2023-04-14T01:50:48.338Z,88.92
2023-04-14T01:53:18.767Z,89.64
2023-04-14T01:55:48.064Z,89.28
2023-04-14T01:58:18.039Z,89.27
2023-04-14T02:00:46.605Z,89.76
2023-04-14T02:03:14.632Z,89.10
2023-04-14T02:05:42.687Z,88.77
2023-04-14T02:08:15.520Z,89.37
2023-04-14T02:10:47.997Z,89.41
2023-04-14T02:13:17.520Z,89.17
2023-04-14T02:15:45.019Z,88.80
2023-04-14T02:18:12.247Z,89.49
2023-04-14T02:20:43.627Z,89.79
2023-04-14T02:23:13.975Z,88.88
2023-04-14T02:25:49.908Z,88.61
2023-04-14T02:28:21.010Z,89.10
2023-04-14T02:30:52.572Z,88.73
2023-04-14T02:33:22.812Z,88.39
2023-04-14T02:36:00.713Z,89.24
2023-04-14T02:38:32.402Z,89.30
2023-04-14T02:41:03.886Z,89.17
2023-04-14T02:43:32.538Z,89.13
2023-04-14T02:46:03.213Z,89.44
2023-04-14T02:48:34.583Z,88.48
2023-04-14T02:51:03.804Z,89.11
2023-04-14T02:53:30.967Z,89.41
2023-04-14T02:55:58.428Z,88.68
2023-04-14T02:58:27.245Z,88.48
2023-04-14T03:00:54.585Z,88.83
2023-04-14T03:03:22.953Z,89.18
2023-04-14T03:05:50.014Z,88.49
2023-04-14T03:08:17.741Z,89.29
2023-04-14T03:10:46.806Z,88.44
2023-04-14T03:13:19.723Z,88.45
2023-04-14T03:15:47.511Z,89.17
2023-04-14T03:18:14.810Z,89.26
2023-04-14T03:20:44.732Z,88.58
2023-04-14T03:23:12.638Z,89.28
2023-04-14T03:25:40.988Z,89.31
2023-04-14T03:28:13.859Z,88.74
2023-04-14T03:30:46.780Z,88.90
2023-04-14T03:33:20.019Z,89.11
2023-04-14T03:35:47.514Z,89.00
2023-04-14T03:38:16.624Z,88.69
2023-04-14T03:40:48.137Z,89.36
2023-04-14T03:43:20.314Z,87.90
2023-04-14T03:45:49.532Z,88.22
2023-04-14T03:48:19.452Z,88.97
2023-04-14T03:50:51.724Z,88.17
2023-04-14T03:53:21.397Z,88.95
2023-04-14T03:55:51.695Z,89.43
2023-04-14T03:58:20.464Z,88.75
2023-04-14T04:00:48.389Z,88.90
2023-04-14T04:03:17.119Z,88.96
2023-04-14T04:05:45.152Z,87.74
2023-04-14T04:08:14.324Z,88.50
2023-04-14T04:10:43.043Z,88.49
2023-04-14T04:13:16.355Z,88.14
2023-04-14T04:15:45.796Z,88.57
2023-04-14T04:18:17.490Z,87.84
2023-04-14T04:20:46.440Z,89.10
2023-04-14T04:23:15.865Z,88.39
2023-04-14T04:25:42.923Z,88.50
2023-04-14T04:28:10.126Z,88.52
2023-04-14T04:30:40.721Z,89.23
2023-04-14T04:33:08.516Z,89.25
2023-04-14T04:35:36.626Z,89.37
2023-04-14T04:38:05.410Z,89.10
2023-04-14T04:40:39.093Z,89.65
2023-04-14T04:43:06.237Z,89.33
2023-04-14T04:45:49.102Z,88.82
2023-04-14T04:48:16.171Z,89.61
2023-04-14T04:50:43.158Z,89.81
2023-04-14T04:53:10.114Z,88.99
2023-04-14T04:55:37.301Z,89.42
2023-04-14T04:58:04.024Z,88.78
2023-04-14T05:00:30.810Z,88.95
2023-04-14T05:02:57.892Z,89.46
2023-04-14T05:05:25.055Z,89.43
2023-04-14T05:07:52.073Z,89.65
2023-04-14T05:10:18.721Z,89.59
2023-04-14T05:12:45.492Z,89.31
2023-04-14T05:15:13.416Z,88.71
2023-04-14T05:17:40.389Z,89.88
2023-04-14T05:20:07.771Z,89.06
2023-04-14T05:22:34.892Z,90.33
2023-04-14T05:25:02.025Z,88.74
2023-04-14T05:27:29.040Z,89.80
2023-04-14T05:29:55.914Z,89.50
2023-04-14T05:32:22.839Z,88.89
2023-04-14T05:34:49.927Z,89.41
2023-04-14T05:37:18.106Z,89.47
2023-04-14T05:39:45.396Z,88.79
2023-04-14T05:42:12.213Z,88.78
2023-04-14T05:44:39.117Z,89.47
2023-04-14T05:47:06.130Z,89.24
2023-04-14T05:49:33.015Z,88.54
2023-04-14T05:51:59.972Z,89.06
2023-04-14T05:54:26.934Z,88.49
2023-04-14T05:56:53.806Z,87.95
2023-04-14T05:59:21.112Z,88.18
2023-04-14T06:01:48.011Z,88.32
2023-04-14T06:04:15.886Z,87.59
2023-04-14T06:06:42.939Z,86.73
2023-04-14T06:09:10.045Z,85.91
2023-04-14T06:11:38.178Z,84.96
2023-04-14T06:14:07.564Z,80.83
2023-04-14T06:16:34.673Z,77.39
2023-04-14T06:19:02.404Z,75.50
2023-04-14T06:21:29.460Z,73.85
2023-04-14T06:23:56.152Z,71.25
2023-04-14T06:26:23.096Z,68.48
2023-04-14T06:28:50.153Z,64.71
2023-04-14T06:31:17.126Z,62.46
2023-04-14T06:33:44.108Z,61.64
2023-04-14T06:36:11.008Z,60.33
2023-04-14T06:38:37.896Z,56.03
2023-04-14T06:41:04.881Z,52.54
2023-04-14T06:43:31.595Z,50.45
2023-04-14T06:45:59.764Z,47.64
2023-04-14T06:48:27.668Z,44.78
2023-04-14T06:50:56.213Z,43.08
2023-04-14T06:53:26.377Z,42.66
2023-04-14T06:55:59.807Z,41.42
2023-04-14T06:58:28.070Z,42.55
2023-04-14T07:00:58.902Z,42.29
2023-04-14T07:03:26.851Z,43.13
2023-04-14T07:05:53.855Z,45.77
2023-04-14T07:08:21.441Z,47.93
2023-04-14T07:10:48.718Z,42.32
2023-04-14T07:13:15.784Z,42.50
2023-04-14T07:15:47.347Z,42.73
2023-04-14T07:18:14.304Z,44.08
2023-04-14T07:20:41.273Z,42.73
2023-04-14T07:23:08.321Z,40.53
2023-04-14T07:25:36.834Z,37.21
2023-04-14T07:28:06.573Z,35.35
2023-04-14T07:30:33.431Z,37.04
2023-04-14T07:33:02.560Z,37.79
2023-04-14T07:35:29.639Z,35.37
2023-04-14T07:37:56.933Z,34.70
2023-04-14T07:40:23.772Z,31.35
2023-04-14T07:42:50.999Z,32.53
2023-04-14T07:45:18.231Z,33.63
2023-04-14T07:47:45.083Z,32.07
2023-04-14T07:50:12.273Z,30.71
2023-04-14T07:52:39.007Z,32.38
2023-04-14T07:55:06.357Z,33.31
2023-04-14T07:57:35.006Z,31.66
2023-04-14T08:00:02.412Z,31.27
2023-04-14T08:02:29.418Z,30.99
2023-04-14T08:04:56.551Z,33.02
2023-04-14T08:07:23.394Z,31.90
2023-04-14T08:09:50.868Z,33.43
2023-04-14T08:12:17.981Z,32.36
2023-04-14T08:14:45.206Z,33.35
2023-04-14T08:17:12.088Z,31.85
2023-04-14T08:19:39.049Z,31.09
2023-04-14T08:22:06.096Z,31.37
2023-04-14T08:24:33.726Z,32.50
2023-04-14T08:27:02.521Z,32.01
2023-04-14T08:29:30.349Z,34.40
2023-04-14T08:31:57.256Z,31.97
2023-04-14T08:34:28.540Z,33.16
2023-04-14T08:36:56.820Z,33.41
2023-04-14T08:39:23.679Z,33.15
2023-04-14T08:41:52.973Z,35.66
2023-04-14T08:44:19.924Z,34.13
2023-04-14T08:46:50.216Z,34.15
2023-04-14T08:49:36.159Z,31.49
2023-04-14T08:52:04.592Z,30.91
2023-04-14T08:54:32.410Z,30.23
2023-04-14T08:57:01.312Z,26.84
2023-04-14T08:59:29.419Z,24.87
2023-04-14T09:01:57.633Z,26.11
2023-04-14T09:04:25.148Z,27.71
2023-04-14T09:06:52.694Z,28.19
2023-04-14T09:09:19.743Z,27.76
2023-04-14T09:11:47.127Z,29.30
2023-04-14T09:14:15.218Z,27.29
2023-04-14T09:16:42.253Z,25.02
2023-04-14T09:19:09.835Z,23.44
2023-04-14T09:21:53.330Z,22.17
2023-04-14T09:24:23.862Z,25.74
2023-04-14T09:26:55.741Z,27.09
2023-04-14T09:29:22.782Z,26.43
2023-04-14T09:31:50.761Z,24.45
2023-04-14T09:34:20.590Z,24.73
2023-04-14T09:37:04.845Z,24.95
2023-04-14T09:39:36.010Z,25.02
2023-04-14T09:42:03.950Z,26.21
2023-04-14T09:44:31.352Z,25.37
2023-04-14T09:46:59.881Z,25.47
2023-04-14T09:49:28.448Z,24.96
2023-04-14T09:52:01.696Z,24.88
2023-04-14T09:54:28.847Z,24.71
2023-04-14T09:56:56.040Z,25.03
2023-04-14T09:59:34.420Z,26.03
2023-04-14T10:02:06.411Z,27.59
2023-04-14T10:04:34.716Z,28.23
2023-04-14T10:07:02.249Z,27.82
2023-04-14T10:09:30.240Z,29.14
2023-04-14T10:12:17.839Z,28.99
2023-04-14T10:14:45.061Z,28.18
2023-04-14T10:17:12.093Z,28.58
2023-04-14T10:19:39.011Z,26.07
2023-04-14T10:22:06.577Z,24.36
2023-04-14T10:24:34.530Z,25.11
2023-04-14T10:27:05.218Z,23.72
2023-04-14T10:29:32.294Z,21.01
2023-04-14T10:32:06.527Z,18.07
2023-04-14T10:34:34.715Z,18.59
2023-04-14T10:37:21.951Z,18.17
2023-04-14T10:39:56.733Z,18.53
2023-04-14T10:42:24.714Z,20.16
2023-04-14T10:45:09.076Z,18.87
2023-04-14T10:47:41.067Z,18.12
2023-04-14T10:50:18.343Z,20.05
2023-04-14T10:52:59.240Z,21.21
2023-04-14T10:55:28.227Z,22.17
2023-04-14T10:58:06.580Z,25.52
2023-04-14T11:00:38.714Z,22.56
2023-04-14T11:03:11.254Z,20.33
2023-04-14T11:05:48.369Z,19.94
2023-04-14T11:08:20.146Z,18.80
2023-04-14T11:10:54.203Z,18.43
2023-04-14T11:13:21.316Z,19.47
2023-04-14T11:16:01.684Z,21.78
2023-04-14T11:18:35.891Z,19.64
2023-04-14T11:21:14.390Z,18.51
2023-04-14T11:23:42.385Z,16.67
2023-04-14T11:26:11.050Z,19.94
2023-04-14T11:28:39.659Z,19.18
2023-04-14T11:31:08.572Z,21.19
2023-04-14T11:33:40.346Z,19.90
2023-04-14T11:36:09.588Z,18.39
2023-04-14T11:38:41.082Z,19.30
2023-04-14T11:41:12.645Z,15.92
2023-04-14T11:43:46.516Z,17.13
2023-04-14T11:46:13.481Z,18.27
2023-04-14T11:48:40.674Z,20.30
2023-04-14T11:51:07.494Z,21.09
2023-04-14T11:53:34.873Z,21.79
2023-04-14T11:56:01.950Z,21.24
2023-04-14T11:58:29.460Z,22.03
2023-04-14T12:00:59.952Z,23.42
2023-04-14T12:03:29.698Z,26.52
2023-04-14T12:06:01.900Z,28.81
2023-04-14T12:08:33.472Z,29.79
2023-04-14T12:11:16.320Z,29.24
2023-04-14T12:13:44.745Z,30.29
2023-04-14T12:16:12.955Z,29.41
2023-04-14T12:18:40.100Z,32.96
2023-04-14T12:21:09.895Z,37.47
2023-04-14T12:23:40.358Z,34.60
2023-04-14T12:26:12.495Z,35.16
2023-04-14T12:28:41.607Z,32.85
2023-04-14T12:31:09.611Z,34.48
2023-04-14T12:33:36.893Z,36.39
2023-04-14T12:36:06.436Z,38.31
2023-04-14T12:38:34.450Z,40.55
2023-04-14T12:41:02.469Z,38.02
2023-04-14T12:43:37.030Z,36.79
2023-04-14T12:46:05.699Z,37.34
2023-04-14T12:48:47.113Z,36.60
2023-04-14T12:51:18.588Z,35.63
2023-04-14T12:53:53.942Z,35.07
2023-04-14T12:56:23.957Z,37.90
2023-04-14T12:58:51.707Z,38.22
2023-04-14T13:01:21.065Z,39.17
2023-04-14T13:03:55.675Z,39.38
2023-04-14T13:06:24.139Z,39.92
2023-04-14T13:08:54.940Z,38.21
2023-04-14T13:11:26.404Z,39.86
2023-04-14T13:13:54.360Z,40.12
2023-04-14T13:16:22.386Z,39.93
2023-04-14T13:18:49.816Z,41.40
2023-04-14T13:21:17.278Z,41.92
2023-04-14T13:23:44.316Z,41.09
2023-04-14T13:26:13.131Z,40.42
2023-04-14T13:28:40.014Z,39.13
2023-04-14T13:31:07.277Z,41.92
2023-04-14T13:33:34.401Z,39.96
2023-04-14T13:36:02.846Z,40.70
2023-04-14T13:38:31.159Z,42.21
2023-04-14T13:40:58.446Z,39.62
2023-04-14T13:43:25.274Z,41.32
2023-04-14T13:45:53.073Z,41.93
2023-04-14T13:48:20.283Z,40.20
2023-04-14T13:50:47.740Z,37.31
2023-04-14T13:53:14.560Z,36.39
2023-04-14T13:55:41.880Z,37.87
2023-04-14T13:58:08.745Z,38.38
2023-04-14T14:00:35.906Z,40.58
2023-04-14T14:03:02.954Z,40.70
2023-04-14T14:05:30.191Z,42.51
2023-04-14T14:07:57.493Z,42.35
2023-04-14T14:10:24.671Z,43.99
2023-04-14T14:12:51.971Z,45.05
2023-04-14T14:15:18.923Z,45.16
2023-04-14T14:17:46.576Z,46.13
2023-04-14T14:20:13.458Z,46.90
2023-04-14T14:22:40.694Z,48.65
2023-04-14T14:25:19.207Z,49.57
2023-04-14T14:27:47.845Z,50.57
2023-04-14T14:30:14.784Z,50.65
2023-04-14T14:32:41.811Z,49.81
2023-04-14T14:35:09.108Z,51.26
2023-04-14T14:37:36.860Z,50.01
2023-04-14T14:40:04.186Z,46.89
2023-04-14T14:42:31.655Z,49.13
2023-04-14T14:45:01.092Z,44.96
2023-04-14T14:47:28.653Z,45.59
2023-04-14T14:50:00.439Z,47.41
2023-04-14T14:52:30.346Z,47.99
2023-04-14T14:54:57.538Z,48.98
2023-04-14T14:57:24.983Z,46.97
2023-04-14T14:59:53.148Z,49.72
2023-04-14T15:02:21.872Z,50.24
2023-04-14T15:04:49.170Z,48.15
2023-04-14T15:07:16.133Z,48.37
2023-04-14T15:09:43.322Z,49.11
2023-04-14T15:12:10.457Z,48.96
2023-04-14T15:14:37.427Z,49.91
2023-04-14T15:17:04.300Z,49.43
2023-04-14T15:19:31.296Z,50.29
2023-04-14T15:21:59.214Z,49.17
2023-04-14T15:24:26.286Z,49.15
2023-04-14T15:26:53.177Z,49.05
2023-04-14T15:29:20.082Z,47.25
2023-04-14T15:31:47.095Z,47.28
2023-04-14T15:34:13.979Z,48.49
2023-04-14T15:36:40.743Z,48.32
2023-04-14T15:39:07.976Z,50.61
2023-04-14T15:41:36.556Z,51.13
2023-04-14T15:44:03.909Z,52.88
2023-04-14T15:46:31.356Z,51.74
2023-04-14T15:48:59.400Z,51.73
2023-04-14T15:51:26.267Z,52.00
2023-04-14T15:53:53.319Z,51.86
2023-04-14T15:56:23.550Z,47.72
2023-04-14T15:58:50.782Z,50.12
2023-04-14T16:01:17.831Z,52.96
2023-04-14T16:03:45.008Z,55.04
2023-04-14T16:06:12.628Z,53.02
2023-04-14T16:08:39.965Z,53.70
2023-04-14T16:11:08.108Z,54.28
2023-04-14T16:13:35.363Z,54.81
2023-04-14T16:16:02.465Z,53.42
2023-04-14T16:18:29.300Z,53.76
2023-04-14T16:20:56.403Z,55.04
2023-04-14T16:23:23.422Z,55.59
2023-04-14T16:25:50.645Z,55.63
2023-04-14T16:28:17.761Z,56.42
2023-04-14T16:30:46.010Z,55.91
2023-04-14T16:33:13.086Z,57.25
2023-04-14T16:35:40.412Z,57.36
2023-04-14T16:38:08.844Z,56.60
2023-04-14T16:40:37.529Z,57.17
2023-04-14T16:43:04.938Z,58.25
2023-04-14T16:45:32.341Z,56.83
2023-04-14T16:47:59.680Z,58.15
2023-04-14T16:50:27.126Z,56.58
2023-04-14T16:52:54.221Z,57.49
2023-04-14T16:55:22.438Z,57.25
2023-04-14T16:57:49.301Z,57.22
2023-04-14T17:00:17.048Z,57.89
2023-04-14T17:02:44.234Z,59.45
2023-04-14T17:05:13.432Z,59.34
2023-04-14T17:07:41.464Z,59.30
2023-04-14T17:10:08.935Z,59.81
2023-04-14T17:12:35.737Z,59.03
2023-04-14T17:15:03.884Z,59.24
2023-04-14T17:17:34.028Z,58.33
2023-04-14T17:20:01.053Z,59.35
2023-04-14T17:22:28.229Z,59.08
2023-04-14T17:24:55.558Z,59.09
2023-04-14T17:27:22.673Z,59.46
2023-04-14T17:29:49.688Z,60.17
2023-04-14T17:32:18.799Z,59.67
2023-04-14T17:34:49.087Z,59.60
2023-04-14T17:37:16.424Z,59.56
2023-04-14T17:39:43.641Z,60.68
2023-04-14T17:42:11.666Z,59.52
2023-04-14T17:44:38.683Z,60.85
2023-04-14T17:47:13.375Z,61.12
2023-04-14T17:49:40.237Z,61.33
2023-04-14T17:52:07.989Z,62.69
2023-04-14T17:54:36.410Z,63.15
2023-04-14T17:57:13.360Z,63.22
2023-04-14T17:59:41.788Z,63.99
2023-04-14T18:02:09.296Z,64.04
2023-04-14T18:04:36.756Z,63.98
2023-04-14T18:07:04.842Z,65.28
2023-04-14T18:09:31.679Z,64.78
2023-04-14T18:11:59.213Z,65.02
2023-04-14T18:14:27.529Z,65.45
2023-04-14T18:16:55.476Z,64.93
2023-04-14T18:19:23.401Z,66.32
2023-04-14T18:21:50.665Z,66.77
2023-04-14T18:26:47.759Z,67.52
2023-04-14T18:29:14.935Z,68.77
2023-04-14T18:31:42.841Z,68.08
2023-04-14T18:34:10.688Z,68.58
2023-04-14T18:36:38.110Z,68.11
2023-04-14T18:39:05.189Z,68.00
2023-04-14T18:41:32.126Z,67.01
2023-04-14T18:44:01.466Z,67.88
2023-04-14T18:46:28.653Z,67.31
2023-04-14T18:48:55.638Z,68.52
2023-04-14T18:51:22.587Z,69.72
2023-04-14T18:53:49.585Z,69.54
2023-04-14T18:56:16.563Z,69.65
2023-04-14T18:58:43.699Z,71.06
2023-04-14T19:01:10.546Z,70.86
2023-04-14T19:03:37.970Z,71.67
2023-04-14T19:06:05.109Z,71.98
2023-04-14T19:08:31.966Z,72.45
2023-04-14T19:10:59.424Z,72.38
2023-04-14T19:13:26.337Z,72.70
2023-04-14T19:15:53.194Z,73.43
2023-04-14T19:18:20.688Z,73.24
2023-04-14T19:20:47.901Z,73.05
2023-04-14T19:23:14.950Z,73.46
2023-04-14T19:25:41.963Z,73.91
2023-04-14T19:28:16.690Z,74.18
2023-04-14T19:30:45.905Z,73.93
2023-04-14T19:33:13.301Z,74.26
2023-04-14T19:35:40.348Z,74.09
2023-04-14T19:38:08.113Z,73.99
2023-04-14T19:40:34.972Z,73.23
2023-04-14T19:43:02.142Z,72.91
2023-04-14T19:45:29.464Z,72.29
2023-04-14T19:47:56.770Z,71.54
2023-04-14T19:50:24.434Z,71.23
2023-04-14T19:52:52.476Z,71.01
2023-04-14T19:55:19.569Z,70.42
2023-04-14T19:57:47.174Z,71.00
2023-04-14T20:00:15.921Z,70.79
2023-04-14T20:02:43.162Z,71.00
2023-04-14T20:05:10.264Z,71.06
2023-04-14T20:07:37.295Z,71.91
2023-04-14T20:10:04.324Z,72.64
2023-04-14T20:12:31.428Z,73.04
2023-04-14T20:14:58.336Z,73.28
2023-04-14T20:17:27.478Z,73.50
2023-04-14T20:19:55.083Z,73.42
2023-04-14T20:22:22.033Z,73.36
2023-04-14T20:24:48.888Z,73.98
2023-04-14T20:27:15.841Z,73.50
2023-04-14T20:29:42.767Z,74.83
2023-04-14T20:32:09.857Z,75.29
2023-04-14T20:34:36.865Z,74.99
2023-04-14T20:37:03.849Z,75.13
2023-04-14T20:39:30.785Z,75.67
2023-04-14T20:41:57.842Z,76.03
2023-04-14T20:44:24.649Z,75.87
2023-04-14T20:46:52.145Z,76.44
2023-04-14T20:49:19.077Z,75.27
2023-04-14T20:51:46.928Z,75.36
2023-04-14T20:54:14.162Z,75.99
2023-04-14T20:56:41.261Z,75.65
2023-04-14T20:59:08.162Z,75.66
2023-04-14T21:01:35.162Z,75.53
2023-04-14T21:04:02.232Z,75.17
2023-04-14T21:06:32.407Z,75.12
2023-04-14T21:09:00.532Z,74.68
2023-04-14T21:11:27.546Z,75.20
2023-04-14T21:15:47.264Z,74.82
2023-04-14T21:16:44.760Z,74.91
2023-04-14T21:19:13.645Z,74.48
2023-04-14T21:21:40.721Z,74.19
2023-04-14T21:24:08.536Z,74.26
2023-04-14T21:26:35.372Z,74.88
2023-04-14T21:29:02.603Z,74.77
2023-04-14T21:31:29.843Z,74.86
2023-04-14T21:33:57.489Z,74.17
2023-04-14T21:36:24.712Z,74.72
2023-04-14T21:38:52.020Z,75.33
2023-04-14T21:41:18.894Z,75.20
2023-04-14T21:43:45.819Z,75.43
2023-04-14T21:46:12.997Z,75.66
2023-04-14T21:48:40.168Z,75.21
2023-04-14T21:51:07.808Z,75.20
2023-04-14T21:53:39.069Z,75.37
2023-04-14T21:56:10.037Z,75.18
2023-04-14T21:58:41.280Z,75.68
2023-04-14T22:01:10.561Z,75.81
2023-04-14T22:03:41.050Z,76.16
2023-04-14T22:06:10.214Z,76.08
2023-04-14T22:08:38.604Z,75.88
2023-04-14T22:11:07.255Z,76.21
2023-04-14T22:13:34.355Z,75.98
2023-04-14T22:16:01.487Z,75.04
2023-04-14T22:18:29.003Z,75.64
2023-04-14T22:20:55.974Z,76.00
2023-04-14T22:23:29.191Z,75.80
2023-04-14T22:25:56.390Z,77.01
2023-04-14T22:28:23.352Z,75.81
2023-04-14T22:30:50.552Z,76.50
2023-04-14T22:33:17.479Z,77.09
2023-04-14T22:35:44.315Z,76.61
2023-04-14T22:38:11.209Z,76.89
2023-04-14T22:40:38.019Z,77.52
2023-04-14T22:43:08.992Z,77.75
2023-04-14T22:45:39.734Z,78.05
2023-04-14T22:48:09.296Z,77.37
2023-04-14T22:50:37.010Z,76.65
2023-04-14T22:53:07.051Z,76.31
2023-04-14T22:55:34.562Z,76.36
2023-04-14T22:58:01.497Z,76.84
2023-04-14T23:00:28.809Z,77.67
2023-04-14T23:02:56.269Z,78.30
2023-04-14T23:05:24.496Z,77.71
2023-04-14T23:07:51.436Z,77.34
2023-04-14T23:10:18.573Z,77.28
2023-04-14T23:12:45.791Z,77.73
2023-04-14T23:15:12.713Z,76.74
2023-04-14T23:17:39.508Z,77.24
2023-04-14T23:20:07.270Z,77.12
2023-04-14T23:22:34.102Z,77.13
2023-04-14T23:25:01.102Z,77.18
2023-04-14T23:27:28.981Z,77.44
2023-04-14T23:29:55.797Z,76.63
2023-04-14T23:32:22.808Z,75.59
2023-04-14T23:34:49.676Z,75.45
2023-04-14T23:37:16.574Z,74.68
2023-04-14T23:39:43.467Z,74.80
2023-04-14T23:42:10.586Z,75.91
2023-04-14T23:44:37.509Z,75.95
2023-04-14T23:47:06.336Z,76.19
2023-04-14T23:49:35.349Z,76.37
2023-04-14T23:52:03.606Z,75.69
2023-04-14T23:54:32.015Z,75.75
2023-04-14T23:56:58.889Z,75.67
2023-04-14T23:59:26.515Z,75.25
